createdAt,value
2023-05-21T00:00:38.722Z,77.85
2023-05-21T00:03:05.410Z,77.60
2023-05-21T00:05:32.593Z,77.16
2023-05-21T00:07:59.410Z,77.06
2023-05-21T00:10:26.693Z,77.32
2023-05-21T00:12:53.283Z,77.48
2023-05-21T00:15:19.872Z,77.43
2023-05-21T00:17:46.862Z,77.54
2023-05-21T00:20:13.652Z,77.36
2023-05-21T00:22:42.238Z,77.53
2023-05-21T00:25:09.979Z,78.17
2023-05-21T00:27:36.648Z,77.64
2023-05-21T00:30:04.185Z,77.47
2023-05-21T00:32:30.784Z,78.43
2023-05-21T00:34:58.265Z,77.55
2023-05-21T00:37:25.062Z,77.33
2023-05-21T00:39:52.223Z,77.46
2023-05-21T00:42:18.858Z,77.41
2023-05-21T00:44:48.714Z,77.98
2023-05-21T00:47:18.237Z,77.92
2023-05-21T00:52:20.190Z,78.06
2023-05-21T00:54:49.689Z,78.09
2023-05-21T00:57:20.611Z,78.40
2023-05-21T00:59:50.551Z,78.52
2023-05-21T01:02:20.025Z,77.56
2023-05-21T01:04:47.175Z,77.91
2023-05-21T01:07:14.604Z,77.18
2023-05-21T01:09:43.171Z,77.66
2023-05-21T01:12:10.995Z,77.35
2023-05-21T01:14:38.504Z,77.55
2023-05-21T01:17:06.461Z,78.05
2023-05-21T01:19:35.469Z,78.51
2023-05-21T01:22:08.067Z,78.14
2023-05-21T01:24:35.583Z,77.94
2023-05-21T01:27:07.682Z,78.01
2023-05-21T01:29:34.492Z,78.03
2023-05-21T01:32:24.331Z,78.70
2023-05-21T01:34:59.922Z,78.31
2023-05-21T01:37:35.672Z,79.18
2023-05-21T01:40:10.614Z,78.73
2023-05-21T01:42:42.510Z,79.12
2023-05-21T01:45:10.586Z,78.74
2023-05-21T01:47:37.674Z,78.61
2023-05-21T01:50:05.681Z,78.98
2023-05-21T01:52:32.295Z,78.43
2023-05-21T01:55:00.354Z,78.37
2023-05-21T01:57:27.118Z,78.63
2023-05-21T01:59:54.185Z,78.53
2023-05-21T02:02:21.838Z,78.67
2023-05-21T02:04:50.098Z,79.92
2023-05-21T02:07:18.290Z,79.32
2023-05-21T02:09:45.160Z,78.91
2023-05-21T02:12:11.857Z,79.01
2023-05-21T02:14:38.858Z,79.06
2023-05-21T02:17:05.730Z,79.70
2023-05-21T02:19:32.553Z,79.52
2023-05-21T02:21:59.267Z,79.08
2023-05-21T02:24:25.850Z,79.46
2023-05-21T02:26:52.492Z,79.20
2023-05-21T02:29:19.432Z,79.01
2023-05-21T02:31:46.193Z,79.07
2023-05-21T02:34:12.894Z,79.12
2023-05-21T02:36:41.608Z,79.06
2023-05-21T02:39:08.250Z,79.58
2023-05-21T02:41:34.907Z,79.17
2023-05-21T02:44:01.632Z,79.74
2023-05-21T02:46:28.399Z,79.38
2023-05-21T02:48:55.490Z,79.20
2023-05-21T02:51:22.727Z,79.73
2023-05-21T02:53:50.023Z,79.76
2023-05-21T02:56:16.742Z,79.47
2023-05-21T02:58:43.439Z,79.48
2023-05-21T03:01:10.221Z,79.00
2023-05-21T03:03:36.941Z,78.97
2023-05-21T03:06:03.886Z,79.03
2023-05-21T03:08:31.888Z,79.10
2023-05-21T03:10:58.692Z,79.48
2023-05-21T03:13:25.929Z,79.58
2023-05-21T03:15:56.228Z,79.38
2023-05-21T03:18:23.990Z,79.50
2023-05-21T03:20:50.698Z,79.70
2023-05-21T03:23:17.998Z,80.07
2023-05-21T03:25:46.034Z,80.00
2023-05-21T03:28:13.748Z,79.99
2023-05-21T03:30:46.768Z,79.55
2023-05-21T03:33:31.631Z,79.62
2023-05-21T03:35:58.972Z,80.08
2023-05-21T03:38:28.577Z,79.99
2023-05-21T03:40:55.208Z,79.93
2023-05-21T03:43:22.261Z,79.86
2023-05-21T03:45:49.040Z,80.54
2023-05-21T03:48:34.266Z,80.30
2023-05-21T03:51:02.440Z,80.33
2023-05-21T03:53:29.166Z,80.18
2023-05-21T03:55:56.022Z,80.10
2023-05-21T03:58:24.631Z,80.16
2023-05-21T04:00:51.362Z,80.25
2023-05-21T04:03:18.302Z,80.41
2023-05-21T04:05:45.189Z,80.92
2023-05-21T04:08:12.403Z,80.39
2023-05-21T04:10:39.009Z,80.68
2023-05-21T04:13:05.642Z,80.98
2023-05-21T04:15:32.490Z,80.06
2023-05-21T04:18:00.426Z,80.49
2023-05-21T04:20:27.193Z,79.87
2023-05-21T04:22:54.288Z,80.24
2023-05-21T04:25:23.156Z,80.62
2023-05-21T04:27:50.178Z,81.03
2023-05-21T04:30:19.987Z,80.70
2023-05-21T04:32:48.223Z,80.50
2023-05-21T04:35:15.338Z,80.21
2023-05-21T04:37:46.013Z,80.37
2023-05-21T04:40:18.417Z,80.24
2023-05-21T04:42:50.761Z,80.06
2023-05-21T04:45:19.036Z,81.03
2023-05-21T04:47:47.905Z,80.32
2023-05-21T04:50:14.639Z,79.71
2023-05-21T04:52:42.383Z,79.90
2023-05-21T04:55:09.135Z,79.87
2023-05-21T04:57:35.812Z,79.90
2023-05-21T05:00:04.124Z,80.07
2023-05-21T05:02:36.911Z,79.64
2023-05-21T05:05:06.758Z,79.42
2023-05-21T05:07:33.416Z,79.13
2023-05-21T05:10:00.076Z,78.70
2023-05-21T05:12:26.712Z,78.99
2023-05-21T05:14:53.321Z,79.04
2023-05-21T05:17:19.929Z,78.87
2023-05-21T05:19:46.609Z,78.73
2023-05-21T05:22:13.699Z,78.42
2023-05-21T05:24:41.857Z,78.06
2023-05-21T05:27:08.516Z,77.71
2023-05-21T05:29:35.141Z,77.61
2023-05-21T05:32:01.953Z,77.46
2023-05-21T05:34:28.591Z,77.05
2023-05-21T05:36:57.209Z,77.16
2023-05-21T05:39:24.007Z,76.89
2023-05-21T05:41:51.270Z,77.04
2023-05-21T05:44:17.906Z,76.43
2023-05-21T05:46:44.813Z,76.13
2023-05-21T05:49:11.480Z,75.89
2023-05-21T05:51:40.242Z,76.02
2023-05-21T05:54:06.825Z,75.38
2023-05-21T05:56:34.897Z,75.18
2023-05-21T05:59:01.483Z,74.67
2023-05-21T06:01:30.170Z,74.52
2023-05-21T06:03:57.415Z,73.86
2023-05-21T06:06:24.242Z,73.87
2023-05-21T06:08:51.275Z,73.58
2023-05-21T06:11:20.390Z,74.08
2023-05-21T06:13:46.998Z,73.85
2023-05-21T06:16:16.798Z,72.53
2023-05-21T06:18:43.834Z,72.30
2023-05-21T06:21:10.534Z,71.50
2023-05-21T06:23:39.062Z,71.34
2023-05-21T06:26:06.302Z,70.45
2023-05-21T06:28:33.214Z,71.02
2023-05-21T06:31:00.465Z,71.21
2023-05-21T06:33:27.570Z,70.83
2023-05-21T06:35:54.310Z,70.80
2023-05-21T06:38:21.338Z,71.24
2023-05-21T06:40:48.017Z,71.54
2023-05-21T06:43:24.655Z,70.33
2023-05-21T06:46:09.840Z,69.92
2023-05-21T06:48:39.527Z,69.50
2023-05-21T06:51:06.454Z,69.23
2023-05-21T06:53:33.319Z,70.18
2023-05-21T06:56:00.467Z,69.42
2023-05-21T06:58:35.608Z,68.46
2023-05-21T07:01:02.482Z,68.70
2023-05-21T07:03:29.594Z,68.23
2023-05-21T07:05:57.718Z,67.02
2023-05-21T07:08:24.429Z,67.23
2023-05-21T07:10:51.132Z,67.29
2023-05-21T07:13:18.228Z,66.59
2023-05-21T07:15:44.988Z,66.46
2023-05-21T07:18:12.152Z,65.81
2023-05-21T07:20:39.379Z,65.48
2023-05-21T07:23:09.203Z,65.52
2023-05-21T07:25:36.199Z,64.29
2023-05-21T07:28:06.442Z,64.28
2023-05-21T07:30:34.894Z,64.05
2023-05-21T07:33:02.976Z,63.07
2023-05-21T07:35:29.783Z,62.19
2023-05-21T07:37:56.825Z,63.76
2023-05-21T07:40:24.600Z,61.83
2023-05-21T07:42:52.151Z,62.53
2023-05-21T07:45:20.345Z,62.10
2023-05-21T07:47:47.229Z,62.78
2023-05-21T07:50:14.844Z,63.11
2023-05-21T07:52:41.770Z,62.16
2023-05-21T07:55:09.540Z,60.80
2023-05-21T07:57:37.845Z,62.31
2023-05-21T08:00:15.432Z,61.60
2023-05-21T08:02:42.352Z,62.06
2023-05-21T08:05:11.487Z,61.13
2023-05-21T08:07:38.234Z,62.58
2023-05-21T08:10:05.352Z,61.39
2023-05-21T08:12:32.540Z,60.30
2023-05-21T08:14:59.660Z,60.81
2023-05-21T08:17:28.470Z,60.38
2023-05-21T08:19:55.498Z,61.29
2023-05-21T08:22:22.417Z,60.29
2023-05-21T08:24:49.931Z,59.03
2023-05-21T08:27:16.579Z,59.15
2023-05-21T08:29:43.506Z,58.90
2023-05-21T08:32:10.786Z,58.84
2023-05-21T08:34:37.956Z,58.10
2023-05-21T08:37:26.288Z,57.77
2023-05-21T08:40:01.129Z,57.88
2023-05-21T08:42:46.009Z,54.38
2023-05-21T08:45:21.307Z,56.42
2023-05-21T08:47:49.691Z,55.33
2023-05-21T08:50:20.346Z,56.02
2023-05-21T08:52:47.832Z,55.15
2023-05-21T08:55:14.566Z,55.07
2023-05-21T08:57:44.390Z,54.11
2023-05-21T09:00:16.804Z,50.12
2023-05-21T09:02:46.874Z,52.21
2023-05-21T09:05:15.618Z,52.75
2023-05-21T09:07:52.512Z,51.46
2023-05-21T09:10:40.707Z,52.97
2023-05-21T09:13:09.316Z,54.02
2023-05-21T09:15:37.674Z,54.48
2023-05-21T09:18:06.337Z,53.02
2023-05-21T09:20:41.982Z,52.40
2023-05-21T09:23:18.238Z,53.81
2023-05-21T09:25:47.814Z,53.11
2023-05-21T09:28:33.294Z,54.29
2023-05-21T09:31:12.565Z,53.10
2023-05-21T09:33:46.060Z,52.78
2023-05-21T09:36:13.199Z,52.65
2023-05-21T09:38:39.923Z,52.87
2023-05-21T09:41:06.848Z,52.62
2023-05-21T09:43:34.828Z,52.25
2023-05-21T09:46:02.928Z,52.38
2023-05-21T09:48:34.556Z,50.79
2023-05-21T09:51:17.807Z,51.48
2023-05-21T09:53:53.909Z,50.77
2023-05-21T09:56:25.003Z,50.43
2023-05-21T09:58:52.737Z,50.05
2023-05-21T10:01:19.983Z,49.92
2023-05-21T10:03:52.084Z,51.16
2023-05-21T10:06:19.866Z,49.39
2023-05-21T10:08:49.186Z,47.27
2023-05-21T10:11:16.699Z,49.42
2023-05-21T10:13:48.984Z,48.25
2023-05-21T10:16:15.848Z,47.32
2023-05-21T10:18:44.090Z,46.13
2023-05-21T10:21:10.803Z,46.58
2023-05-21T10:23:38.572Z,45.45
2023-05-21T10:26:06.968Z,46.14
2023-05-21T10:28:34.008Z,45.32
2023-05-21T10:31:01.175Z,45.25
2023-05-21T10:33:29.261Z,45.48
2023-05-21T10:35:58.510Z,46.15
2023-05-21T10:38:25.725Z,46.06
2023-05-21T10:40:53.676Z,43.86
2023-05-21T10:43:53.267Z,44.83
2023-05-21T10:46:35.353Z,43.75
2023-05-21T10:49:44.045Z,42.20
2023-05-21T10:52:21.970Z,41.90
2023-05-21T10:54:58.607Z,41.27
2023-05-21T10:57:54.603Z,41.66
2023-05-21T11:00:21.935Z,41.33
2023-05-21T11:02:52.941Z,41.74
2023-05-21T11:05:51.122Z,42.10
2023-05-21T11:08:33.749Z,40.12
2023-05-21T11:11:00.756Z,40.43
2023-05-21T11:13:31.436Z,39.84
2023-05-21T11:15:58.186Z,38.92
2023-05-21T11:18:31.169Z,35.14
2023-05-21T11:21:14.425Z,36.26
2023-05-21T11:23:55.312Z,37.52
2023-05-21T11:26:24.105Z,37.03
2023-05-21T11:29:11.217Z,32.30
2023-05-21T11:31:38.549Z,33.98
2023-05-21T11:34:28.749Z,32.92
2023-05-21T11:37:18.006Z,34.83
2023-05-21T11:39:45.425Z,34.78
2023-05-21T11:42:12.142Z,35.39
2023-05-21T11:44:40.018Z,36.47
2023-05-21T11:47:08.480Z,34.69
2023-05-21T11:49:36.084Z,35.81
2023-05-21T11:52:04.507Z,34.23
2023-05-21T11:54:35.964Z,35.17
2023-05-21T11:57:05.980Z,35.08
2023-05-21T11:59:33.443Z,35.63
2023-05-21T12:02:00.218Z,34.67
2023-05-21T12:04:37.180Z,34.71
2023-05-21T12:07:05.168Z,35.29
2023-05-21T12:09:31.753Z,34.91
2023-05-21T12:11:58.362Z,34.97
2023-05-21T12:14:24.967Z,33.57
2023-05-21T12:16:52.028Z,33.34
2023-05-21T12:19:19.163Z,33.73
2023-05-21T12:21:46.079Z,33.67
2023-05-21T12:24:15.989Z,31.65
2023-05-21T12:26:44.529Z,34.06
2023-05-21T12:29:11.761Z,32.46
2023-05-21T12:31:50.727Z,33.96
2023-05-21T12:34:46.489Z,31.30
2023-05-21T12:37:22.330Z,31.24
2023-05-21T12:39:54.008Z,29.89
2023-05-21T12:42:30.978Z,28.25
2023-05-21T12:45:06.756Z,28.36
2023-05-21T12:47:37.894Z,28.69
2023-05-21T12:50:09.368Z,26.63
2023-05-21T12:52:37.778Z,23.95
2023-05-21T12:55:09.398Z,27.26
2023-05-21T12:57:38.914Z,27.18
2023-05-21T13:00:15.323Z,30.09
2023-05-21T13:02:52.342Z,28.02
2023-05-21T13:05:22.640Z,28.32
2023-05-21T13:08:14.931Z,27.03
2023-05-21T13:11:27.437Z,28.22
2023-05-21T13:14:01.007Z,31.22
2023-05-21T13:19:42.689Z,33.27
2023-05-21T13:22:11.583Z,33.48
2023-05-21T13:24:39.776Z,35.41
2023-05-21T13:27:10.132Z,34.80
2023-05-21T13:29:39.314Z,33.57
2023-05-21T13:32:11.482Z,31.71
2023-05-21T13:34:44.612Z,31.93
2023-05-21T13:37:18.459Z,32.58
2023-05-21T13:39:46.956Z,32.23
2023-05-21T13:42:20.102Z,32.98
2023-05-21T13:45:12.429Z,33.34
2023-05-21T13:47:51.938Z,34.01
2023-05-21T13:50:21.380Z,34.31
2023-05-21T13:52:51.361Z,35.62
2023-05-21T13:55:22.007Z,36.32
2023-05-21T13:58:09.835Z,36.40
2023-05-21T14:00:41.806Z,36.21
2023-05-21T14:03:12.200Z,37.26
2023-05-21T14:05:41.758Z,38.22
2023-05-21T14:08:21.415Z,40.18
2023-05-21T14:10:48.097Z,41.12
2023-05-21T14:13:20.047Z,41.06
2023-05-21T14:15:48.539Z,42.54
2023-05-21T14:18:50.089Z,44.02
2023-05-21T14:21:19.534Z,44.88
2023-05-21T14:23:47.439Z,46.12
2023-05-21T14:30:20.374Z,48.66
2023-05-21T14:32:57.961Z,49.27
2023-05-21T14:35:24.792Z,49.26
2023-05-21T14:37:52.208Z,50.60
2023-05-21T14:40:18.772Z,51.46
2023-05-21T14:42:45.416Z,52.02
2023-05-21T14:45:19.192Z,53.15
2023-05-21T14:47:47.724Z,52.36
2023-05-21T14:50:15.438Z,52.98
2023-05-21T14:52:43.307Z,53.63
2023-05-21T14:55:12.906Z,56.08
2023-05-21T14:57:39.599Z,52.66
2023-05-21T15:00:06.804Z,54.19
2023-05-21T15:02:33.573Z,52.75
2023-05-21T15:05:00.275Z,54.16
2023-05-21T15:07:26.885Z,52.49
2023-05-21T15:09:53.541Z,52.37
2023-05-21T15:12:20.488Z,53.51
2023-05-21T15:14:47.074Z,52.91
2023-05-21T15:17:13.662Z,52.70
2023-05-21T15:19:42.971Z,51.91
2023-05-21T15:22:10.141Z,52.72
2023-05-21T15:24:38.915Z,51.65
2023-05-21T15:27:05.750Z,52.28
2023-05-21T15:29:34.817Z,54.01
2023-05-21T15:32:05.023Z,52.60
2023-05-21T15:34:32.481Z,51.74
2023-05-21T15:36:59.228Z,51.69
2023-05-21T15:39:27.556Z,51.82
2023-05-21T15:42:00.515Z,52.90
2023-05-21T15:44:28.889Z,52.41
2023-05-21T15:46:55.586Z,52.21
2023-05-21T15:49:22.654Z,53.33
2023-05-21T15:51:49.684Z,56.12
2023-05-21T15:54:16.539Z,54.28
2023-05-21T15:56:45.565Z,54.49
2023-05-21T15:59:13.918Z,55.59
2023-05-21T16:01:40.934Z,55.98
2023-05-21T16:04:09.270Z,56.65
2023-05-21T16:06:36.217Z,56.69
2023-05-21T16:09:03.205Z,57.13
2023-05-21T16:11:29.955Z,58.18
2023-05-21T16:13:56.902Z,57.98
2023-05-21T16:16:24.896Z,59.94
2023-05-21T16:18:51.927Z,60.96
2023-05-21T16:21:18.960Z,58.87
2023-05-21T16:23:46.056Z,59.09
2023-05-21T16:26:13.073Z,59.32
2023-05-21T16:28:43.097Z,59.88
2023-05-21T16:31:10.922Z,60.52
2023-05-21T16:33:37.635Z,61.28
2023-05-21T16:36:04.693Z,61.97
2023-05-21T16:38:31.625Z,61.13
2023-05-21T16:40:58.428Z,60.96
2023-05-21T16:43:25.197Z,60.71
2023-05-21T16:45:53.502Z,60.41
2023-05-21T16:48:20.390Z,61.10
2023-05-21T16:50:47.207Z,61.05
2023-05-21T16:53:14.171Z,60.92
2023-05-21T16:55:42.690Z,61.61
2023-05-21T16:58:10.901Z,60.75
2023-05-21T17:00:37.681Z,61.70
2023-05-21T17:03:04.698Z,61.97
2023-05-21T17:05:31.537Z,61.90
2023-05-21T17:07:58.501Z,62.02
2023-05-21T17:10:25.380Z,61.80
2023-05-21T17:12:52.644Z,62.34
2023-05-21T17:15:19.657Z,62.39
2023-05-21T17:17:47.615Z,62.78
2023-05-21T17:20:14.648Z,62.58
2023-05-21T17:22:41.579Z,62.77
2023-05-21T17:25:08.727Z,63.06
2023-05-21T17:27:35.905Z,62.46
2023-05-21T17:30:03.910Z,62.15
2023-05-21T17:32:30.836Z,61.94
2023-05-21T17:34:57.736Z,61.48
2023-05-21T17:37:24.722Z,61.99
2023-05-21T17:39:51.555Z,62.02
2023-05-21T17:42:18.901Z,61.59
2023-05-21T17:44:45.643Z,62.27
2023-05-21T17:47:12.560Z,62.16
2023-05-21T17:49:39.725Z,63.04
2023-05-21T17:52:06.988Z,63.33
2023-05-21T17:54:35.206Z,63.92
2023-05-21T17:57:02.962Z,63.90
2023-05-21T17:59:29.790Z,63.78
2023-05-21T18:01:57.770Z,64.06
2023-05-21T18:04:24.843Z,64.62
2023-05-21T18:06:51.874Z,64.86
2023-05-21T18:09:19.293Z,65.00
2023-05-21T18:11:46.225Z,64.76
2023-05-21T18:14:13.491Z,65.45
2023-05-21T18:16:40.983Z,65.37
2023-05-21T18:19:08.156Z,65.10
2023-05-21T18:21:35.357Z,65.74
2023-05-21T18:24:02.654Z,65.85
2023-05-21T18:26:30.294Z,66.33
2023-05-21T18:28:58.050Z,66.47
2023-05-21T18:31:25.648Z,66.38
2023-05-21T18:33:52.448Z,66.86
2023-05-21T18:36:19.233Z,67.32
2023-05-21T18:38:46.159Z,67.34
2023-05-21T18:41:13.121Z,67.49
2023-05-21T18:43:41.592Z,67.93
2023-05-21T18:46:08.664Z,67.83
2023-05-21T18:48:35.544Z,68.04
2023-05-21T18:51:02.270Z,68.69
2023-05-21T18:53:29.197Z,68.96
2023-05-21T18:55:57.183Z,68.69
2023-05-21T18:58:24.454Z,68.85
2023-05-21T19:00:51.293Z,69.57
2023-05-21T19:03:18.035Z,69.40
2023-05-21T19:05:45.300Z,69.30
2023-05-21T19:08:12.276Z,69.88
2023-05-21T19:10:39.330Z,70.36
2023-05-21T19:13:06.685Z,70.15
2023-05-21T19:15:33.507Z,71.24
2023-05-21T19:18:01.281Z,70.98
2023-05-21T19:20:28.336Z,70.54
2023-05-21T19:22:59.034Z,70.81
2023-05-21T19:25:27.169Z,70.79
2023-05-21T19:27:53.960Z,71.34
2023-05-21T19:30:20.652Z,71.39
2023-05-21T19:32:50.916Z,71.76
2023-05-21T19:35:40.022Z,71.50
2023-05-21T19:38:07.352Z,71.80
2023-05-21T19:40:34.288Z,72.58
2023-05-21T19:43:03.392Z,72.37
2023-05-21T19:45:30.113Z,72.63
2023-05-21T19:47:57.171Z,72.20
2023-05-21T19:50:25.622Z,72.88
2023-05-21T19:52:52.432Z,73.63
2023-05-21T19:55:20.454Z,74.15
2023-05-21T19:57:47.564Z,73.59
2023-05-21T20:00:15.876Z,73.44
2023-05-21T20:02:42.774Z,73.95
2023-05-21T20:05:10.635Z,74.69
2023-05-21T20:07:37.625Z,73.91
2023-05-21T20:10:04.681Z,73.84
2023-05-21T20:12:34.543Z,74.89
2023-05-21T20:15:01.316Z,75.53
2023-05-21T20:17:30.563Z,75.13
2023-05-21T20:19:59.330Z,75.09
2023-05-21T20:22:26.998Z,74.96
2023-05-21T20:24:54.306Z,74.51
2023-05-21T20:27:21.651Z,75.31
2023-05-21T20:29:48.942Z,76.16
2023-05-21T20:32:16.378Z,76.02
2023-05-21T20:34:54.672Z,75.60
2023-05-21T20:37:32.313Z,76.17
2023-05-21T20:39:59.984Z,74.79
2023-05-21T20:42:28.973Z,75.68
2023-05-21T20:44:58.846Z,75.89
2023-05-21T20:47:30.157Z,75.75
2023-05-21T20:49:58.864Z,74.88
2023-05-21T20:52:26.044Z,74.82
2023-05-21T20:54:54.703Z,75.73
2023-05-21T20:57:26.711Z,76.06
2023-05-21T20:59:53.592Z,75.82
2023-05-21T21:02:21.721Z,75.36
2023-05-21T21:04:49.945Z,76.14
2023-05-21T21:07:18.296Z,75.99
2023-05-21T21:09:46.513Z,75.68
2023-05-21T21:14:48.639Z,75.86
2023-05-21T21:17:15.815Z,75.60
2023-05-21T21:19:46.125Z,76.33
2023-05-21T21:22:13.173Z,76.24
2023-05-21T21:24:39.976Z,75.86
2023-05-21T21:27:06.823Z,76.24
2023-05-21T21:29:33.557Z,76.43
2023-05-21T21:32:00.369Z,76.29
2023-05-21T21:34:27.162Z,76.16
2023-05-21T21:36:54.195Z,75.23
2023-05-21T21:39:22.454Z,75.86
2023-05-21T21:41:49.583Z,76.09
2023-05-21T21:44:16.415Z,75.98
2023-05-21T21:46:43.184Z,76.43
2023-05-21T21:49:10.013Z,75.81
2023-05-21T21:51:37.024Z,75.48
2023-05-21T21:54:04.203Z,76.39
2023-05-21T21:56:33.973Z,76.28
2023-05-21T21:59:00.756Z,76.47
2023-05-21T22:01:27.677Z,75.58
2023-05-21T22:03:54.500Z,76.95
2023-05-21T22:06:21.320Z,75.62
2023-05-21T22:08:48.419Z,77.18
2023-05-21T22:11:15.309Z,77.43
2023-05-21T22:13:42.079Z,77.01
2023-05-21T22:16:08.941Z,76.68
2023-05-21T22:18:40.429Z,76.54
2023-05-21T22:21:10.203Z,77.37
2023-05-21T22:23:38.541Z,77.25
2023-05-21T22:26:05.965Z,77.73
2023-05-21T22:28:32.965Z,76.63
2023-05-21T22:30:59.790Z,76.57
2023-05-21T22:33:26.983Z,77.56
2023-05-21T22:35:54.518Z,77.95
2023-05-21T22:38:21.621Z,77.84
2023-05-21T22:40:48.658Z,77.01
2023-05-21T22:43:15.646Z,76.60
2023-05-21T22:45:42.561Z,76.94
2023-05-21T22:48:09.950Z,77.17
2023-05-21T22:50:38.657Z,78.27
2023-05-21T22:53:07.068Z,78.34
2023-05-21T22:55:33.821Z,77.20
2023-05-21T22:58:00.605Z,76.88
2023-05-21T23:00:27.516Z,76.72
2023-05-21T23:02:54.954Z,77.69
2023-05-21T23:05:22.593Z,78.58
2023-05-21T23:07:49.898Z,77.72
2023-05-21T23:10:16.879Z,77.03
2023-05-21T23:12:43.822Z,76.57
2023-05-21T23:15:11.051Z,77.28
2023-05-21T23:17:38.436Z,77.89
2023-05-21T23:20:07.425Z,78.59
2023-05-21T23:22:34.820Z,78.64
2023-05-21T23:25:01.668Z,78.35
2023-05-21T23:27:29.252Z,78.04
2023-05-21T23:29:56.070Z,77.69
2023-05-21T23:32:23.651Z,77.30
2023-05-21T23:34:50.916Z,77.31
2023-05-21T23:37:17.834Z,78.01
2023-05-21T23:39:48.166Z,77.77
2023-05-21T23:42:16.088Z,78.18
2023-05-21T23:44:42.959Z,77.63
2023-05-21T23:47:09.976Z,77.35
2023-05-21T23:49:36.777Z,77.03
2023-05-21T23:52:03.917Z,77.46
2023-05-21T23:54:30.789Z,76.08
2023-05-21T23:56:57.635Z,76.50
2023-05-21T23:59:24.372Z,76.50
